Aeroporto :
LOGIN :

Iscrizione | Disclaimer

   EN    FR    IT 

 










Sommario :    VFR   VFR Marginale   IFR   IFR Intensivo   IFR Molto Intensivo
Visibilità : 
Base nubi : 
>= 8 km
>= 3000ft
5 / 8 km
1000 / 3000 ft
1500m / 5 km
500 / 1000 ft
800 / 1500m
200 / 500 ft
< 800m
< 200 ft
Simboli :   Temporali  Nebbia  Neve Forte  Precipitazioni Forti  Vento > 20 kt
SIGMETs :   Varie  Temporali  Ghiacco  Turbolenza  Onda orograficha  Ceneri Vulcaniche






- Altitudine del aeroporto : 79 ft
- Codice IATA : SPU


LDSP - Split

ULTIMO METAR :
  • 242300Z AUTO 11005KT 050V150 CAVOK 17/04 Q1025

METARs OBSOLETI :
  • 242230Z AUTO 03009KT CAVOK 17/04 Q1025
  • 242200Z AUTO 04008KT CAVOK 17/04 Q1025
  • 242130Z AUTO 06005KT 020V110 CAVOK 17/05 Q1025
  • 242100Z AUTO 05006KT CAVOK 17/04 Q1025
  • 242030Z AUTO 01007KT CAVOK 18/04 Q1025

TAF TAF LDSP
Valido dal 24 a 18 ore il 25 a 18 ore UTC


241725Z 2418/2518 VRB02KT CAVOK TX24/2513Z TN15/2504Z
TEMPO 2420/2506 05008KT
BECMG 2510/2512 23008KT
BECMG 2515/2517 32008KT



MetMap, La meteo Aeronautica in un colpo d'occhio ! - Copyright ORBIFLY Dicembre 2007 - Disclaimer

ORBIFLY MET'MAP TEAM :

Programmazione e sviluppo : Alexandra Zaïnal
Concezione : Baudouin d'Aumeries
Aiuto per la programmazione : Marc-Olivier Méhu
Supporto tecnico e logistico : Manuel Goepfert
Aiuto per la traduzione : Arnaldo La Scala

Contatto : metmap@orbifly.com




FONTI E CREDITI :

   NOAA